sensor_id;sensor_type;location;lat;lon;timestamp;P1;durP1;ratioP1;P2;durP2;ratioP2
16403;SDS011;8311;50.158;8.642;2023-05-01T00:02:22;3.05;;;1.88;;
16403;SDS011;8311;50.158;8.642;2023-05-01T00:05:15;2.30;;;1.60;;
16403;SDS011;8311;50.158;8.642;2023-05-01T00:08:09;1.98;;;1.35;;
16403;SDS011;8311;50.158;8.642;2023-05-01T00:11:02;3.50;;;1.85;;
16403;SDS011;8311;50.158;8.642;2023-05-01T00:13:54;3.28;;;1.67;;
16403;SDS011;8311;50.158;8.642;2023-05-01T00:16:48;2.55;;;1.60;;
16403;SDS011;8311;50.158;8.642;2023-05-01T00:19:42;3.42;;;2.00;;
16403;SDS011;8311;50.158;8.642;2023-05-01T00:22:35;3.60;;;1.90;;
16403;SDS011;8311;50.158;8.642;2023-05-01T00:25:28;2.88;;;1.73;;
16403;SDS011;8311;50.158;8.642;2023-05-01T00:28:21;2.95;;;1.73;;
16403;SDS011;8311;50.158;8.642;2023-05-01T00:31:15;2.72;;;1.48;;
16403;SDS011;8311;50.158;8.642;2023-05-01T00:34:08;2.22;;;1.30;;
16403;SDS011;8311;50.158;8.642;2023-05-01T00:37:03;3.17;;;1.90;;
16403;SDS011;8311;50.158;8.642;2023-05-01T00:39:56;2.53;;;1.55;;
16403;SDS011;8311;50.158;8.642;2023-05-01T00:42:50;3.47;;;1.58;;
16403;SDS011;8311;50.158;8.642;2023-05-01T00:45:43;1.88;;;1.40;;
16403;SDS011;8311;50.158;8.642;2023-05-01T00:48:37;2.80;;;1.83;;
16403;SDS011;8311;50.158;8.642;2023-05-01T00:51:30;2.63;;;1.67;;
16403;SDS011;8311;50.158;8.642;2023-05-01T00:54:25;2.53;;;1.60;;
16403;SDS011;8311;50.158;8.642;2023-05-01T00:57:19;2.60;;;1.77;;
16403;SDS011;8311;50.158;8.642;2023-05-01T01:00:13;2.45;;;1.30;;
16403;SDS011;8311;50.158;8.642;2023-05-01T01:03:08;3.25;;;1.65;;
16403;SDS011;8311;50.158;8.642;2023-05-01T01:06:03;2.50;;;1.63;;
16403;SDS011;8311;50.158;8.642;2023-05-01T01:09:03;3.88;;;1.73;;
16403;SDS011;8311;50.158;8.642;2023-05-01T01:12:14;3.20;;;1.73;;
16403;SDS011;8311;50.158;8.642;2023-05-01T01:15:17;2.08;;;1.40;;
16403;SDS011;8311;50.158;8.642;2023-05-01T01:18:17;2.55;;;1.70;;
16403;SDS011;8311;50.158;8.642;2023-05-01T01:21:21;3.83;;;1.85;;
16403;SDS011;8311;50.158;8.642;2023-05-01T01:24:28;3.67;;;1.90;;
16403;SDS011;8311;50.158;8.642;2023-05-01T01:27:53;2.83;;;1.60;;
16403;SDS011;8311;50.158;8.642;2023-05-01T01:31:08;2.63;;;1.33;;
16403;SDS011;8311;50.158;8.642;2023-05-01T01:34:08;3.03;;;1.70;;
16403;SDS011;8311;50.158;8.642;2023-05-01T01:37:07;2.50;;;1.45;;
16403;SDS011;8311;50.158;8.642;2023-05-01T01:40:05;2.15;;;1.52;;
16403;SDS011;8311;50.158;8.642;2023-05-01T01:43:03;2.80;;;1.50;;
16403;SDS011;8311;50.158;8.642;2023-05-01T01:45:59;2.25;;;1.30;;
16403;SDS011;8311;50.158;8.642;2023-05-01T01:48:57;4.43;;;1.70;;
16403;SDS011;8311;50.158;8.642;2023-05-01T01:51:54;3.58;;;1.77;;
16403;SDS011;8311;50.158;8.642;2023-05-01T01:54:50;3.47;;;1.50;;
16403;SDS011;8311;50.158;8.642;2023-05-01T01:57:45;2.78;;;1.55;;
16403;SDS011;8311;50.158;8.642;2023-05-01T02:00:42;3.95;;;1.42;;
16403;SDS011;8311;50.158;8.642;2023-05-01T02:03:37;2.95;;;1.52;;
16403;SDS011;8311;50.158;8.642;2023-05-01T02:06:31;2.47;;;1.75;;
16403;SDS011;8311;50.158;8.642;2023-05-01T02:09:28;1.55;;;1.23;;
16403;SDS011;8311;50.158;8.642;2023-05-01T02:12:22;2.13;;;1.50;;
16403;SDS011;8311;50.158;8.642;2023-05-01T02:15:17;5.50;;;2.28;;
16403;SDS011;8311;50.158;8.642;2023-05-01T02:18:12;3.00;;;1.60;;
16403;SDS011;8311;50.158;8.642;2023-05-01T02:21:07;3.35;;;1.92;;
16403;SDS011;8311;50.158;8.642;2023-05-01T02:24:03;2.83;;;1.77;;
16403;SDS011;8311;50.158;8.642;2023-05-01T02:26:59;3.28;;;1.60;;
16403;SDS011;8311;50.158;8.642;2023-05-01T02:29:57;5.10;;;2.00;;
16403;SDS011;8311;50.158;8.642;2023-05-01T02:32:50;1.90;;;1.45;;
16403;SDS011;8311;50.158;8.642;2023-05-01T02:35:44;3.40;;;1.58;;
16403;SDS011;8311;50.158;8.642;2023-05-01T02:38:38;2.78;;;1.70;;
16403;SDS011;8311;50.158;8.642;2023-05-01T02:41:32;2.47;;;1.77;;
16403;SDS011;8311;50.158;8.642;2023-05-01T02:44:29;3.15;;;1.73;;
16403;SDS011;8311;50.158;8.642;2023-05-01T02:47:29;2.47;;;1.50;;
16403;SDS011;8311;50.158;8.642;2023-05-01T02:50:26;2.10;;;1.52;;
16403;SDS011;8311;50.158;8.642;2023-05-01T02:53:21;4.32;;;1.85;;
16403;SDS011;8311;50.158;8.642;2023-05-01T02:56:14;2.58;;;1.80;;
16403;SDS011;8311;50.158;8.642;2023-05-01T02:59:07;2.67;;;1.92;;
16403;SDS011;8311;50.158;8.642;2023-05-01T03:02:01;4.32;;;1.90;;
16403;SDS011;8311;50.158;8.642;2023-05-01T03:04:55;3.60;;;1.83;;
16403;SDS011;8311;50.158;8.642;2023-05-01T03:07:48;2.20;;;1.50;;
16403;SDS011;8311;50.158;8.642;2023-05-01T03:10:42;2.63;;;1.77;;
16403;SDS011;8311;50.158;8.642;2023-05-01T03:13:36;2.20;;;1.50;;
16403;SDS011;8311;50.158;8.642;2023-05-01T03:16:29;3.53;;;1.73;;
16403;SDS011;8311;50.158;8.642;2023-05-01T03:19:23;2.42;;;1.60;;
16403;SDS011;8311;50.158;8.642;2023-05-01T03:22:17;4.00;;;2.05;;
16403;SDS011;8311;50.158;8.642;2023-05-01T03:25:11;2.75;;;1.85;;
16403;SDS011;8311;50.158;8.642;2023-05-01T03:28:04;3.72;;;2.10;;
16403;SDS011;8311;50.158;8.642;2023-05-01T03:30:57;3.25;;;1.83;;
16403;SDS011;8311;50.158;8.642;2023-05-01T03:33:50;3.28;;;2.20;;
16403;SDS011;8311;50.158;8.642;2023-05-01T03:36:44;3.47;;;2.10;;
16403;SDS011;8311;50.158;8.642;2023-05-01T03:39:37;4.97;;;2.00;;
16403;SDS011;8311;50.158;8.642;2023-05-01T03:42:30;3.53;;;1.70;;
16403;SDS011;8311;50.158;8.642;2023-05-01T03:45:23;2.58;;;1.60;;
16403;SDS011;8311;50.158;8.642;2023-05-01T03:48:16;3.17;;;1.60;;
16403;SDS011;8311;50.158;8.642;2023-05-01T03:51:09;3.15;;;1.80;;
16403;SDS011;8311;50.158;8.642;2023-05-01T03:54:03;4.05;;;1.90;;
16403;SDS011;8311;50.158;8.642;2023-05-01T03:56:57;4.88;;;2.20;;
16403;SDS011;8311;50.158;8.642;2023-05-01T03:59:51;2.17;;;1.80;;
16403;SDS011;8311;50.158;8.642;2023-05-01T04:02:45;3.92;;;2.05;;
16403;SDS011;8311;50.158;8.642;2023-05-01T04:05:39;3.13;;;2.00;;
16403;SDS011;8311;50.158;8.642;2023-05-01T04:08:32;3.78;;;2.10;;
16403;SDS011;8311;50.158;8.642;2023-05-01T04:11:26;3.20;;;1.90;;
16403;SDS011;8311;50.158;8.642;2023-05-01T04:14:19;4.72;;;2.30;;
16403;SDS011;8311;50.158;8.642;2023-05-01T04:17:13;2.25;;;1.75;;
16403;SDS011;8311;50.158;8.642;2023-05-01T04:20:06;3.25;;;1.88;;
16403;SDS011;8311;50.158;8.642;2023-05-01T04:22:59;4.25;;;2.10;;
16403;SDS011;8311;50.158;8.642;2023-05-01T04:25:53;3.45;;;2.08;;
16403;SDS011;8311;50.158;8.642;2023-05-01T04:28:47;3.67;;;1.95;;
16403;SDS011;8311;50.158;8.642;2023-05-01T04:31:41;4.38;;;2.13;;
16403;SDS011;8311;50.158;8.642;2023-05-01T04:34:34;4.07;;;2.00;;
16403;SDS011;8311;50.158;8.642;2023-05-01T04:37:27;3.03;;;1.80;;
16403;SDS011;8311;50.158;8.642;2023-05-01T04:40:20;3.50;;;1.88;;
16403;SDS011;8311;50.158;8.642;2023-05-01T04:43:13;3.53;;;2.28;;
16403;SDS011;8311;50.158;8.642;2023-05-01T04:46:07;4.32;;;2.00;;
16403;SDS011;8311;50.158;8.642;2023-05-01T04:49:01;2.65;;;1.77;;
16403;SDS011;8311;50.158;8.642;2023-05-01T04:51:54;4.50;;;2.35;;
16403;SDS011;8311;50.158;8.642;2023-05-01T04:54:48;3.28;;;1.95;;
16403;SDS011;8311;50.158;8.642;2023-05-01T04:57:41;3.80;;;2.20;;
16403;SDS011;8311;50.158;8.642;2023-05-01T05:00:34;3.30;;;1.95;;
16403;SDS011;8311;50.158;8.642;2023-05-01T05:03:28;2.70;;;1.83;;
16403;SDS011;8311;50.158;8.642;2023-05-01T05:06:22;4.63;;;2.42;;
16403;SDS011;8311;50.158;8.642;2023-05-01T05:09:15;3.47;;;2.22;;
16403;SDS011;8311;50.158;8.642;2023-05-01T05:12:10;3.55;;;1.98;;
16403;SDS011;8311;50.158;8.642;2023-05-01T05:15:05;3.63;;;1.90;;
16403;SDS011;8311;50.158;8.642;2023-05-01T05:18:00;4.55;;;1.88;;
16403;SDS011;8311;50.158;8.642;2023-05-01T05:20:55;3.97;;;2.30;;
16403;SDS011;8311;50.158;8.642;2023-05-01T05:23:48;5.25;;;2.20;;
16403;SDS011;8311;50.158;8.642;2023-05-01T05:26:42;3.83;;;2.10;;
16403;SDS011;8311;50.158;8.642;2023-05-01T05:29:35;4.05;;;2.10;;
16403;SDS011;8311;50.158;8.642;2023-05-01T05:32:28;3.83;;;2.03;;
16403;SDS011;8311;50.158;8.642;2023-05-01T05:35:21;5.85;;;1.90;;
16403;SDS011;8311;50.158;8.642;2023-05-01T05:38:15;2.83;;;2.00;;
16403;SDS011;8311;50.158;8.642;2023-05-01T05:41:09;4.45;;;2.15;;
16403;SDS011;8311;50.158;8.642;2023-05-01T05:44:02;3.13;;;1.92;;
16403;SDS011;8311;50.158;8.642;2023-05-01T05:46:55;7.25;;;2.08;;
16403;SDS011;8311;50.158;8.642;2023-05-01T05:49:48;3.97;;;1.98;;
16403;SDS011;8311;50.158;8.642;2023-05-01T05:52:41;6.15;;;1.75;;
16403;SDS011;8311;50.158;8.642;2023-05-01T05:55:35;3.75;;;1.83;;
16403;SDS011;8311;50.158;8.642;2023-05-01T05:58:29;4.78;;;2.03;;
16403;SDS011;8311;50.158;8.642;2023-05-01T06:01:22;4.65;;;2.00;;
16403;SDS011;8311;50.158;8.642;2023-05-01T06:04:16;4.85;;;2.10;;
16403;SDS011;8311;50.158;8.642;2023-05-01T06:07:09;9.60;;;2.60;;
16403;SDS011;8311;50.158;8.642;2023-05-01T06:10:02;10.52;;;2.45;;
16403;SDS011;8311;50.158;8.642;2023-05-01T06:12:57;9.50;;;2.50;;
16403;SDS011;8311;50.158;8.642;2023-05-01T06:16:04;6.30;;;2.20;;
16403;SDS011;8311;50.158;8.642;2023-05-01T06:18:59;6.22;;;2.40;;
16403;SDS011;8311;50.158;8.642;2023-05-01T06:21:52;6.95;;;2.40;;
16403;SDS011;8311;50.158;8.642;2023-05-01T06:24:45;4.20;;;2.28;;
16403;SDS011;8311;50.158;8.642;2023-05-01T06:27:38;6.20;;;2.70;;
16403;SDS011;8311;50.158;8.642;2023-05-01T06:30:34;10.05;;;2.40;;
16403;SDS011;8311;50.158;8.642;2023-05-01T06:33:27;12.90;;;3.30;;
16403;SDS011;8311;50.158;8.642;2023-05-01T06:36:21;9.35;;;3.42;;
16403;SDS011;8311;50.158;8.642;2023-05-01T06:39:14;12.02;;;3.10;;
16403;SDS011;8311;50.158;8.642;2023-05-01T06:42:08;9.90;;;2.88;;
16403;SDS011;8311;50.158;8.642;2023-05-01T06:45:06;8.63;;;2.85;;
16403;SDS011;8311;50.158;8.642;2023-05-01T06:48:01;9.15;;;2.95;;
16403;SDS011;8311;50.158;8.642;2023-05-01T06:50:55;7.43;;;2.78;;
16403;SDS011;8311;50.158;8.642;2023-05-01T06:53:48;12.23;;;3.35;;
16403;SDS011;8311;50.158;8.642;2023-05-01T06:56:41;6.38;;;2.78;;
16403;SDS011;8311;50.158;8.642;2023-05-01T06:59:34;11.20;;;3.25;;
16403;SDS011;8311;50.158;8.642;2023-05-01T07:02:27;11.23;;;2.70;;
16403;SDS011;8311;50.158;8.642;2023-05-01T07:05:22;17.42;;;4.47;;
16403;SDS011;8311;50.158;8.642;2023-05-01T07:08:15;11.35;;;3.63;;
16403;SDS011;8311;50.158;8.642;2023-05-01T07:11:08;8.15;;;3.15;;
16403;SDS011;8311;50.158;8.642;2023-05-01T07:14:01;19.30;;;4.68;;
16403;SDS011;8311;50.158;8.642;2023-05-01T07:16:55;9.45;;;4.05;;
16403;SDS011;8311;50.158;8.642;2023-05-01T07:19:48;20.40;;;4.50;;
16403;SDS011;8311;50.158;8.642;2023-05-01T07:22:42;26.13;;;4.82;;
16403;SDS011;8311;50.158;8.642;2023-05-01T07:25:36;11.15;;;3.97;;
16403;SDS011;8311;50.158;8.642;2023-05-01T07:28:31;20.70;;;5.20;;
16403;SDS011;8311;50.158;8.642;2023-05-01T07:31:24;17.02;;;4.97;;
16403;SDS011;8311;50.158;8.642;2023-05-01T07:34:17;16.10;;;5.13;;
16403;SDS011;8311;50.158;8.642;2023-05-01T07:37:10;16.17;;;4.72;;
16403;SDS011;8311;50.158;8.642;2023-05-01T07:40:05;17.58;;;4.47;;
16403;SDS011;8311;50.158;8.642;2023-05-01T07:42:59;16.15;;;4.00;;
16403;SDS011;8311;50.158;8.642;2023-05-01T07:45:55;15.52;;;4.38;;
16403;SDS011;8311;50.158;8.642;2023-05-01T07:48:51;11.45;;;3.78;;
16403;SDS011;8311;50.158;8.642;2023-05-01T07:51:44;13.60;;;4.07;;
16403;SDS011;8311;50.158;8.642;2023-05-01T07:54:37;8.13;;;3.30;;
16403;SDS011;8311;50.158;8.642;2023-05-01T07:57:32;9.98;;;3.60;;
16403;SDS011;8311;50.158;8.642;2023-05-01T08:00:26;9.50;;;3.65;;
16403;SDS011;8311;50.158;8.642;2023-05-01T08:03:20;6.93;;;3.47;;
16403;SDS011;8311;50.158;8.642;2023-05-01T08:06:13;10.32;;;3.20;;
16403;SDS011;8311;50.158;8.642;2023-05-01T08:09:06;10.18;;;3.53;;
16403;SDS011;8311;50.158;8.642;2023-05-01T08:11:59;11.82;;;3.80;;
16403;SDS011;8311;50.158;8.642;2023-05-01T08:14:55;10.05;;;3.42;;
16403;SDS011;8311;50.158;8.642;2023-05-01T08:17:48;8.60;;;3.78;;
16403;SDS011;8311;50.158;8.642;2023-05-01T08:20:42;5.22;;;3.00;;
16403;SDS011;8311;50.158;8.642;2023-05-01T08:23:35;9.75;;;3.47;;
16403;SDS011;8311;50.158;8.642;2023-05-01T08:26:29;12.23;;;3.50;;
16403;SDS011;8311;50.158;8.642;2023-05-01T08:29:22;10.65;;;3.58;;
16403;SDS011;8311;50.158;8.642;2023-05-01T08:32:17;8.15;;;3.53;;
16403;SDS011;8311;50.158;8.642;2023-05-01T08:35:10;6.25;;;3.10;;
16403;SDS011;8311;50.158;8.642;2023-05-01T08:38:03;7.43;;;3.25;;
16403;SDS011;8311;50.158;8.642;2023-05-01T08:40:56;7.78;;;3.00;;
16403;SDS011;8311;50.158;8.642;2023-05-01T08:43:52;6.03;;;2.95;;
16403;SDS011;8311;50.158;8.642;2023-05-01T08:46:49;6.13;;;3.03;;
16403;SDS011;8311;50.158;8.642;2023-05-01T08:49:49;6.93;;;3.17;;
16403;SDS011;8311;50.158;8.642;2023-05-01T08:52:44;4.57;;;2.67;;
16403;SDS011;8311;50.158;8.642;2023-05-01T08:55:39;6.93;;;3.03;;
16403;SDS011;8311;50.158;8.642;2023-05-01T08:58:37;6.68;;;2.97;;
16403;SDS011;8311;50.158;8.642;2023-05-01T09:01:31;5.80;;;3.03;;
16403;SDS011;8311;50.158;8.642;2023-05-01T09:04:27;5.70;;;2.55;;
16403;SDS011;8311;50.158;8.642;2023-05-01T09:07:24;5.05;;;2.83;;
16403;SDS011;8311;50.158;8.642;2023-05-01T09:10:17;5.20;;;2.80;;
16403;SDS011;8311;50.158;8.642;2023-05-01T09:13:11;6.03;;;3.00;;
16403;SDS011;8311;50.158;8.642;2023-05-01T09:16:04;7.03;;;2.63;;
16403;SDS011;8311;50.158;8.642;2023-05-01T09:18:58;4.57;;;2.38;;
16403;SDS011;8311;50.158;8.642;2023-05-01T09:21:52;6.93;;;2.97;;
16403;SDS011;8311;50.158;8.642;2023-05-01T09:24:48;5.88;;;3.33;;
16403;SDS011;8311;50.158;8.642;2023-05-01T09:27:41;6.63;;;2.75;;
16403;SDS011;8311;50.158;8.642;2023-05-01T09:30:35;8.80;;;3.38;;
16403;SDS011;8311;50.158;8.642;2023-05-01T09:33:30;5.53;;;2.88;;
16403;SDS011;8311;50.158;8.642;2023-05-01T09:36:23;5.82;;;2.97;;
16403;SDS011;8311;50.158;8.642;2023-05-01T09:39:21;5.03;;;2.63;;
16403;SDS011;8311;50.158;8.642;2023-05-01T09:42:22;5.18;;;3.03;;
16403;SDS011;8311;50.158;8.642;2023-05-01T09:45:18;5.22;;;2.97;;
16403;SDS011;8311;50.158;8.642;2023-05-01T09:48:11;6.63;;;3.05;;
16403;SDS011;8311;50.158;8.642;2023-05-01T09:51:18;4.22;;;2.80;;
16403;SDS011;8311;50.158;8.642;2023-05-01T09:54:17;5.15;;;2.80;;
16403;SDS011;8311;50.158;8.642;2023-05-01T09:57:11;5.80;;;2.50;;
16403;SDS011;8311;50.158;8.642;2023-05-01T10:00:06;6.63;;;3.10;;
16403;SDS011;8311;50.158;8.642;2023-05-01T10:03:01;5.15;;;2.80;;
16403;SDS011;8311;50.158;8.642;2023-05-01T10:06:05;4.18;;;2.40;;
16403;SDS011;8311;50.158;8.642;2023-05-01T10:09:00;5.10;;;2.70;;
16403;SDS011;8311;50.158;8.642;2023-05-01T10:11:55;4.97;;;2.78;;
16403;SDS011;8311;50.158;8.642;2023-05-01T10:14:50;5.18;;;2.67;;
16403;SDS011;8311;50.158;8.642;2023-05-01T10:17:46;4.88;;;2.58;;
16403;SDS011;8311;50.158;8.642;2023-05-01T10:20:42;5.95;;;2.78;;
16403;SDS011;8311;50.158;8.642;2023-05-01T10:23:35;5.07;;;2.88;;
16403;SDS011;8311;50.158;8.642;2023-05-01T10:26:28;4.85;;;2.72;;
16403;SDS011;8311;50.158;8.642;2023-05-01T10:29:22;4.70;;;2.60;;
16403;SDS011;8311;50.158;8.642;2023-05-01T10:32:19;4.43;;;2.13;;
16403;SDS011;8311;50.158;8.642;2023-05-01T10:35:18;5.97;;;2.83;;
16403;SDS011;8311;50.158;8.642;2023-05-01T10:38:18;5.70;;;2.90;;
16403;SDS011;8311;50.158;8.642;2023-05-01T10:41:14;4.18;;;2.58;;
16403;SDS011;8311;50.158;8.642;2023-05-01T10:44:20;7.05;;;3.30;;
16403;SDS011;8311;50.158;8.642;2023-05-01T10:54:21;5.63;;;2.72;;
16403;SDS011;8311;50.158;8.642;2023-05-01T10:57:40;6.53;;;2.70;;
16403;SDS011;8311;50.158;8.642;2023-05-01T11:00:33;3.85;;;2.60;;
16403;SDS011;8311;50.158;8.642;2023-05-01T11:03:33;6.75;;;2.85;;
16403;SDS011;8311;50.158;8.642;2023-05-01T11:06:28;5.28;;;2.95;;
16403;SDS011;8311;50.158;8.642;2023-05-01T11:09:36;4.43;;;2.92;;
16403;SDS011;8311;50.158;8.642;2023-05-01T11:12:46;4.38;;;2.58;;
16403;SDS011;8311;50.158;8.642;2023-05-01T11:15:41;4.88;;;2.80;;
16403;SDS011;8311;50.158;8.642;2023-05-01T11:18:44;5.30;;;3.03;;
16403;SDS011;8311;50.158;8.642;2023-05-01T11:21:39;5.32;;;3.03;;
16403;SDS011;8311;50.158;8.642;2023-05-01T11:24:32;3.55;;;2.40;;
16403;SDS011;8311;50.158;8.642;2023-05-01T11:27:25;5.15;;;2.75;;
16403;SDS011;8311;50.158;8.642;2023-05-01T11:30:18;9.40;;;3.15;;
16403;SDS011;8311;50.158;8.642;2023-05-01T11:33:11;4.57;;;2.83;;
16403;SDS011;8311;50.158;8.642;2023-05-01T11:36:07;6.28;;;3.22;;
16403;SDS011;8311;50.158;8.642;2023-05-01T11:39:02;4.65;;;3.00;;
16403;SDS011;8311;50.158;8.642;2023-05-01T11:42:05;5.05;;;2.70;;
16403;SDS011;8311;50.158;8.642;2023-05-01T11:45:07;6.38;;;3.10;;
16403;SDS011;8311;50.158;8.642;2023-05-01T11:48:02;5.90;;;3.10;;
16403;SDS011;8311;50.158;8.642;2023-05-01T11:50:56;5.88;;;2.65;;
16403;SDS011;8311;50.158;8.642;2023-05-01T11:53:58;5.32;;;2.67;;
16403;SDS011;8311;50.158;8.642;2023-05-01T11:57:00;5.07;;;3.10;;
16403;SDS011;8311;50.158;8.642;2023-05-01T11:59:53;5.38;;;2.72;;
16403;SDS011;8311;50.158;8.642;2023-05-01T12:02:56;4.97;;;3.13;;
16403;SDS011;8311;50.158;8.642;2023-05-01T12:05:51;5.50;;;2.88;;
16403;SDS011;8311;50.158;8.642;2023-05-01T12:08:46;4.57;;;2.97;;
16403;SDS011;8311;50.158;8.642;2023-05-01T12:11:41;5.80;;;2.47;;
16403;SDS011;8311;50.158;8.642;2023-05-01T12:14:37;4.30;;;2.83;;
16403;SDS011;8311;50.158;8.642;2023-05-01T12:17:31;4.10;;;2.97;;
16403;SDS011;8311;50.158;8.642;2023-05-01T12:20:37;6.25;;;3.03;;
16403;SDS011;8311;50.158;8.642;2023-05-01T12:23:33;4.40;;;2.67;;
16403;SDS011;8311;50.158;8.642;2023-05-01T12:26:27;4.30;;;2.78;;
16403;SDS011;8311;50.158;8.642;2023-05-01T12:29:20;5.95;;;3.03;;
16403;SDS011;8311;50.158;8.642;2023-05-01T12:32:15;5.07;;;3.15;;
16403;SDS011;8311;50.158;8.642;2023-05-01T12:35:13;4.20;;;2.40;;
16403;SDS011;8311;50.158;8.642;2023-05-01T12:38:10;6.22;;;2.80;;
16403;SDS011;8311;50.158;8.642;2023-05-01T12:41:05;4.55;;;2.72;;
16403;SDS011;8311;50.158;8.642;2023-05-01T12:43:59;5.03;;;3.17;;
16403;SDS011;8311;50.158;8.642;2023-05-01T12:46:53;6.03;;;3.00;;
16403;SDS011;8311;50.158;8.642;2023-05-01T12:49:48;5.50;;;3.03;;
16403;SDS011;8311;50.158;8.642;2023-05-01T12:52:52;5.40;;;2.85;;
16403;SDS011;8311;50.158;8.642;2023-05-01T12:55:47;5.22;;;2.80;;
16403;SDS011;8311;50.158;8.642;2023-05-01T12:58:42;4.05;;;2.53;;
16403;SDS011;8311;50.158;8.642;2023-05-01T13:01:35;4.63;;;2.70;;
16403;SDS011;8311;50.158;8.642;2023-05-01T13:04:29;4.78;;;2.65;;
16403;SDS011;8311;50.158;8.642;2023-05-01T13:07:25;5.78;;;2.80;;
16403;SDS011;8311;50.158;8.642;2023-05-01T13:10:28;3.50;;;2.70;;
16403;SDS011;8311;50.158;8.642;2023-05-01T13:13:23;3.33;;;2.30;;
16403;SDS011;8311;50.158;8.642;2023-05-01T13:16:17;6.70;;;2.72;;
16403;SDS011;8311;50.158;8.642;2023-05-01T13:19:11;3.10;;;2.10;;
16403;SDS011;8311;50.158;8.642;2023-05-01T13:22:05;4.68;;;2.47;;
16403;SDS011;8311;50.158;8.642;2023-05-01T13:25:00;4.57;;;2.60;;
16403;SDS011;8311;50.158;8.642;2023-05-01T13:27:54;4.68;;;2.63;;
16403;SDS011;8311;50.158;8.642;2023-05-01T13:30:47;5.70;;;2.58;;
16403;SDS011;8311;50.158;8.642;2023-05-01T13:33:41;5.57;;;2.78;;
16403;SDS011;8311;50.158;8.642;2023-05-01T13:36:35;4.68;;;2.35;;
16403;SDS011;8311;50.158;8.642;2023-05-01T13:39:31;4.97;;;2.33;;
16403;SDS011;8311;50.158;8.642;2023-05-01T13:42:26;4.30;;;2.60;;
16403;SDS011;8311;50.158;8.642;2023-05-01T13:45:19;4.03;;;2.33;;
16403;SDS011;8311;50.158;8.642;2023-05-01T13:48:14;3.92;;;2.20;;
16403;SDS011;8311;50.158;8.642;2023-05-01T13:51:08;5.43;;;2.55;;
16403;SDS011;8311;50.158;8.642;2023-05-01T13:54:04;3.75;;;2.38;;
16403;SDS011;8311;50.158;8.642;2023-05-01T13:56:59;4.15;;;2.60;;
16403;SDS011;8311;50.158;8.642;2023-05-01T13:59:54;3.33;;;2.33;;
16403;SDS011;8311;50.158;8.642;2023-05-01T14:02:47;5.10;;;2.50;;
16403;SDS011;8311;50.158;8.642;2023-05-01T14:05:44;3.28;;;2.08;;
16403;SDS011;8311;50.158;8.642;2023-05-01T14:08:38;4.25;;;2.85;;
16403;SDS011;8311;50.158;8.642;2023-05-01T14:11:31;4.28;;;2.67;;
16403;SDS011;8311;50.158;8.642;2023-05-01T14:14:24;4.55;;;2.40;;
16403;SDS011;8311;50.158;8.642;2023-05-01T14:17:19;3.75;;;2.40;;
16403;SDS011;8311;50.158;8.642;2023-05-01T14:20:17;3.92;;;2.30;;
16403;SDS011;8311;50.158;8.642;2023-05-01T14:23:10;4.07;;;2.67;;
16403;SDS011;8311;50.158;8.642;2023-05-01T14:26:07;4.18;;;2.60;;
16403;SDS011;8311;50.158;8.642;2023-05-01T14:29:01;4.30;;;2.42;;
16403;SDS011;8311;50.158;8.642;2023-05-01T14:31:54;5.43;;;2.60;;
16403;SDS011;8311;50.158;8.642;2023-05-01T14:34:49;3.63;;;2.60;;
16403;SDS011;8311;50.158;8.642;2023-05-01T14:37:42;3.75;;;2.45;;
16403;SDS011;8311;50.158;8.642;2023-05-01T14:40:35;5.72;;;2.58;;
16403;SDS011;8311;50.158;8.642;2023-05-01T14:43:32;4.35;;;2.63;;
16403;SDS011;8311;50.158;8.642;2023-05-01T14:46:28;4.72;;;2.40;;
16403;SDS011;8311;50.158;8.642;2023-05-01T14:49:22;4.03;;;2.70;;
16403;SDS011;8311;50.158;8.642;2023-05-01T14:52:19;3.90;;;2.40;;
16403;SDS011;8311;50.158;8.642;2023-05-01T14:55:13;3.75;;;2.33;;
16403;SDS011;8311;50.158;8.642;2023-05-01T14:58:08;4.03;;;2.33;;
16403;SDS011;8311;50.158;8.642;2023-05-01T15:01:01;3.55;;;2.25;;
16403;SDS011;8311;50.158;8.642;2023-05-01T15:03:54;3.60;;;2.55;;
16403;SDS011;8311;50.158;8.642;2023-05-01T15:06:48;4.90;;;2.55;;
16403;SDS011;8311;50.158;8.642;2023-05-01T15:09:44;3.08;;;2.10;;
16403;SDS011;8311;50.158;8.642;2023-05-01T15:12:37;3.65;;;2.75;;
16403;SDS011;8311;50.158;8.642;2023-05-01T15:15:30;4.57;;;2.60;;
16403;SDS011;8311;50.158;8.642;2023-05-01T15:18:23;3.35;;;2.25;;
16403;SDS011;8311;50.158;8.642;2023-05-01T15:21:17;4.90;;;2.75;;
16403;SDS011;8311;50.158;8.642;2023-05-01T15:24:10;3.35;;;2.20;;
16403;SDS011;8311;50.158;8.642;2023-05-01T15:27:04;4.30;;;2.65;;
16403;SDS011;8311;50.158;8.642;2023-05-01T15:29:58;3.50;;;2.33;;
16403;SDS011;8311;50.158;8.642;2023-05-01T15:32:52;3.38;;;2.35;;
16403;SDS011;8311;50.158;8.642;2023-05-01T15:35:45;3.35;;;2.55;;
16403;SDS011;8311;50.158;8.642;2023-05-01T15:38:38;3.53;;;2.50;;
16403;SDS011;8311;50.158;8.642;2023-05-01T15:41:32;3.60;;;2.20;;
16403;SDS011;8311;50.158;8.642;2023-05-01T15:44:26;4.43;;;2.58;;
16403;SDS011;8311;50.158;8.642;2023-05-01T15:47:19;4.20;;;2.65;;
16403;SDS011;8311;50.158;8.642;2023-05-01T15:50:13;4.53;;;2.70;;
16403;SDS011;8311;50.158;8.642;2023-05-01T15:53:06;4.43;;;2.83;;
16403;SDS011;8311;50.158;8.642;2023-05-01T15:56:00;4.57;;;2.38;;
16403;SDS011;8311;50.158;8.642;2023-05-01T15:58:53;3.42;;;2.30;;
16403;SDS011;8311;50.158;8.642;2023-05-01T16:01:48;4.45;;;2.47;;
16403;SDS011;8311;50.158;8.642;2023-05-01T16:04:44;4.18;;;2.40;;
16403;SDS011;8311;50.158;8.642;2023-05-01T16:07:38;3.75;;;2.30;;
16403;SDS011;8311;50.158;8.642;2023-05-01T16:10:31;4.18;;;2.30;;
16403;SDS011;8311;50.158;8.642;2023-05-01T16:13:26;5.03;;;2.60;;
16403;SDS011;8311;50.158;8.642;2023-05-01T16:16:22;3.72;;;2.40;;
16403;SDS011;8311;50.158;8.642;2023-05-01T16:19:18;3.03;;;2.30;;
16403;SDS011;8311;50.158;8.642;2023-05-01T16:22:12;3.88;;;2.42;;
16403;SDS011;8311;50.158;8.642;2023-05-01T16:25:08;3.95;;;2.40;;
16403;SDS011;8311;50.158;8.642;2023-05-01T16:28:03;4.90;;;2.47;;
16403;SDS011;8311;50.158;8.642;2023-05-01T16:30:56;5.07;;;2.30;;
16403;SDS011;8311;50.158;8.642;2023-05-01T16:33:49;5.05;;;3.13;;
16403;SDS011;8311;50.158;8.642;2023-05-01T16:36:45;3.55;;;2.33;;
16403;SDS011;8311;50.158;8.642;2023-05-01T16:39:38;3.85;;;2.00;;
16403;SDS011;8311;50.158;8.642;2023-05-01T16:42:31;3.63;;;2.42;;
16403;SDS011;8311;50.158;8.642;2023-05-01T16:45:25;4.05;;;2.15;;
16403;SDS011;8311;50.158;8.642;2023-05-01T16:48:19;3.85;;;2.53;;
16403;SDS011;8311;50.158;8.642;2023-05-01T16:51:14;3.33;;;2.40;;
16403;SDS011;8311;50.158;8.642;2023-05-01T16:54:10;3.95;;;2.50;;
16403;SDS011;8311;50.158;8.642;2023-05-01T16:57:03;3.85;;;2.75;;
16403;SDS011;8311;50.158;8.642;2023-05-01T16:59:56;4.28;;;2.38;;
16403;SDS011;8311;50.158;8.642;2023-05-01T17:02:49;3.63;;;1.90;;
16403;SDS011;8311;50.158;8.642;2023-05-01T17:05:45;3.60;;;2.42;;
16403;SDS011;8311;50.158;8.642;2023-05-01T17:08:38;4.20;;;2.40;;
16403;SDS011;8311;50.158;8.642;2023-05-01T17:11:33;3.03;;;2.30;;
16403;SDS011;8311;50.158;8.642;2023-05-01T17:14:26;4.63;;;2.30;;
16403;SDS011;8311;50.158;8.642;2023-05-01T17:17:20;3.13;;;2.17;;
16403;SDS011;8311;50.158;8.642;2023-05-01T17:20:15;2.80;;;2.25;;
16403;SDS011;8311;50.158;8.642;2023-05-01T17:23:09;4.57;;;2.40;;
16403;SDS011;8311;50.158;8.642;2023-05-01T17:26:02;3.60;;;2.30;;
16403;SDS011;8311;50.158;8.642;2023-05-01T17:28:57;4.05;;;2.70;;
16403;SDS011;8311;50.158;8.642;2023-05-01T17:31:52;3.53;;;2.08;;
16403;SDS011;8311;50.158;8.642;2023-05-01T17:34:46;3.88;;;2.60;;
16403;SDS011;8311;50.158;8.642;2023-05-01T17:37:39;4.10;;;2.45;;
16403;SDS011;8311;50.158;8.642;2023-05-01T17:40:33;2.92;;;2.40;;
16403;SDS011;8311;50.158;8.642;2023-05-01T17:43:35;3.75;;;2.33;;
16403;SDS011;8311;50.158;8.642;2023-05-01T17:46:28;3.22;;;2.30;;
16403;SDS011;8311;50.158;8.642;2023-05-01T17:49:22;3.65;;;2.45;;
16403;SDS011;8311;50.158;8.642;2023-05-01T17:52:15;3.35;;;2.00;;
16403;SDS011;8311;50.158;8.642;2023-05-01T17:55:08;2.72;;;2.15;;
16403;SDS011;8311;50.158;8.642;2023-05-01T17:58:01;3.58;;;2.28;;